createdAt,value
2022-11-08T00:02:26.437Z,37.60
2022-11-08T00:04:53.344Z,36.80
2022-11-08T00:07:38.996Z,36.70
2022-11-08T00:10:25.181Z,36.70
2022-11-08T00:13:10.615Z,36.60
2022-11-08T00:15:38.903Z,36.60
2022-11-08T00:18:06.547Z,36.60
2022-11-08T00:20:33.485Z,36.60
2022-11-08T00:23:00.260Z,36.60
2022-11-08T00:25:27.018Z,36.60
2022-11-08T00:27:53.796Z,36.60
2022-11-08T00:30:20.863Z,36.60
2022-11-08T00:32:47.608Z,36.50
2022-11-08T00:35:14.554Z,36.50
2022-11-08T00:37:41.328Z,36.50
2022-11-08T00:40:08.531Z,36.40
2022-11-08T00:42:35.298Z,36.40
2022-11-08T00:45:02.085Z,36.40
2022-11-08T00:47:29.460Z,36.40
2022-11-08T00:49:56.254Z,36.30
2022-11-08T00:52:23.065Z,37.00
2022-11-08T00:54:49.819Z,36.30
2022-11-08T00:57:16.597Z,36.30
2022-11-08T00:59:43.343Z,36.20
2022-11-08T01:02:10.148Z,36.20
2022-11-08T01:04:36.990Z,36.20
2022-11-08T01:07:03.746Z,36.20
2022-11-08T01:09:30.495Z,36.10
2022-11-08T01:11:57.340Z,36.10
2022-11-08T01:14:24.107Z,36.10
2022-11-08T01:16:52.242Z,36.00
2022-11-08T01:19:19.010Z,35.90
2022-11-08T01:21:45.893Z,35.90
2022-11-08T01:24:12.636Z,35.90
2022-11-08T01:26:39.436Z,35.80
2022-11-08T01:29:06.193Z,35.80
2022-11-08T01:31:32.995Z,35.90
2022-11-08T01:34:00.558Z,35.80
2022-11-08T01:36:28.404Z,35.90
2022-11-08T01:38:56.432Z,35.90
2022-11-08T01:41:25.599Z,35.90
2022-11-08T01:43:57.339Z,35.90
2022-11-08T01:46:37.033Z,35.90
2022-11-08T01:49:23.043Z,36.00
2022-11-08T01:52:07.720Z,36.00
2022-11-08T01:54:43.663Z,36.00
2022-11-08T01:57:16.159Z,36.10
2022-11-08T01:59:45.630Z,36.00
2022-11-08T02:02:13.218Z,36.10
2022-11-08T02:04:42.098Z,36.20
2022-11-08T02:07:11.311Z,36.20
2022-11-08T02:09:39.995Z,36.10
2022-11-08T02:12:08.669Z,36.10
2022-11-08T02:14:37.210Z,36.10
2022-11-08T02:17:05.299Z,36.10
2022-11-08T02:19:44.608Z,36.10
2022-11-08T02:22:21.176Z,36.10
2022-11-08T02:24:48.331Z,36.00
2022-11-08T02:27:15.212Z,36.00
2022-11-08T02:29:42.119Z,35.90
2022-11-08T02:32:11.151Z,35.90
2022-11-08T02:34:47.619Z,35.90
2022-11-08T02:37:17.271Z,35.90
2022-11-08T02:39:44.252Z,35.90
2022-11-08T02:42:16.243Z,35.90
2022-11-08T02:44:42.981Z,36.00
2022-11-08T02:47:09.782Z,36.00
2022-11-08T02:49:36.894Z,36.00
2022-11-08T02:52:04.139Z,36.10
2022-11-08T02:54:30.980Z,36.10
2022-11-08T02:56:57.778Z,36.10
2022-11-08T02:59:24.625Z,36.10
2022-11-08T03:01:51.522Z,36.00
2022-11-08T03:04:18.707Z,35.90
2022-11-08T03:06:45.451Z,35.70
2022-11-08T03:09:12.430Z,35.70
2022-11-08T03:11:39.626Z,35.60
2022-11-08T03:14:06.392Z,35.50
2022-11-08T03:16:33.254Z,35.30
2022-11-08T03:19:00.053Z,35.30
2022-11-08T03:21:26.825Z,35.20
2022-11-08T03:23:53.565Z,35.10
2022-11-08T03:26:21.471Z,35.10
2022-11-08T03:28:48.301Z,35.00
2022-11-08T03:31:15.065Z,35.00
2022-11-08T03:33:42.807Z,35.00
2022-11-08T03:36:09.810Z,35.00
2022-11-08T03:38:36.578Z,35.00
2022-11-08T03:41:03.335Z,35.00
2022-11-08T03:43:30.141Z,34.90
2022-11-08T03:45:56.872Z,34.80
2022-11-08T03:48:23.818Z,34.70
2022-11-08T03:50:51.894Z,34.60
2022-11-08T03:53:18.951Z,34.50
2022-11-08T03:55:45.717Z,34.30
2022-11-08T03:58:12.531Z,34.40
2022-11-08T04:00:39.449Z,34.30
2022-11-08T04:03:06.265Z,34.20
2022-11-08T04:05:33.542Z,34.20
2022-11-08T04:08:01.887Z,34.30
2022-11-08T04:10:29.190Z,34.30
2022-11-08T04:13:18.220Z,34.40
2022-11-08T04:15:46.059Z,34.50
2022-11-08T04:18:31.270Z,34.60
2022-11-08T04:21:19.101Z,34.70
2022-11-08T04:23:47.392Z,34.80
2022-11-08T04:26:14.897Z,34.80
2022-11-08T04:28:42.090Z,34.90
2022-11-08T04:31:15.740Z,34.90
2022-11-08T04:33:42.870Z,34.90
2022-11-08T04:36:13.272Z,35.00
2022-11-08T04:38:40.077Z,35.00
2022-11-08T04:41:12.029Z,35.00
2022-11-08T04:43:38.934Z,35.10
2022-11-08T04:46:08.151Z,35.10
2022-11-08T04:48:35.467Z,35.00
2022-11-08T04:51:04.558Z,35.00
2022-11-08T04:53:31.589Z,35.00
2022-11-08T04:56:07.172Z,34.90
2022-11-08T04:58:39.669Z,35.00
2022-11-08T05:01:08.234Z,35.10
2022-11-08T05:03:35.785Z,35.00
2022-11-08T05:06:04.800Z,35.10
2022-11-08T05:08:32.533Z,35.00
2022-11-08T05:11:08.188Z,35.00
2022-11-08T05:13:35.267Z,35.00
2022-11-08T05:16:25.545Z,35.00
2022-11-08T05:18:52.585Z,35.00
2022-11-08T05:21:39.229Z,35.00
2022-11-08T05:24:06.801Z,35.00
2022-11-08T05:26:36.039Z,35.00
2022-11-08T05:29:03.058Z,34.90
2022-11-08T05:31:29.860Z,34.80
2022-11-08T05:33:56.882Z,34.70
2022-11-08T05:36:23.663Z,34.70
2022-11-08T05:38:50.431Z,34.70
2022-11-08T05:41:19.494Z,34.80
2022-11-08T05:43:49.391Z,35.00
2022-11-08T05:46:17.466Z,35.00
2022-11-08T05:48:45.032Z,35.00
2022-11-08T05:51:12.874Z,35.10
2022-11-08T05:53:40.416Z,35.10
2022-11-08T05:56:07.654Z,35.10
2022-11-08T05:58:36.294Z,35.00
2022-11-08T06:01:08.015Z,35.00
2022-11-08T06:03:35.581Z,35.00
2022-11-08T06:06:04.522Z,35.00
2022-11-08T06:08:31.471Z,34.90
2022-11-08T06:11:16.642Z,34.80
2022-11-08T06:13:43.971Z,34.80
2022-11-08T06:16:13.359Z,34.80
2022-11-08T06:18:40.432Z,34.80
2022-11-08T06:21:11.315Z,34.80
2022-11-08T06:23:38.937Z,34.80
2022-11-08T06:26:05.789Z,35.00
2022-11-08T06:28:33.097Z,35.00
2022-11-08T06:31:01.095Z,35.00
2022-11-08T06:33:28.641Z,35.00
2022-11-08T06:35:55.439Z,35.00
2022-11-08T06:38:22.641Z,35.00
2022-11-08T06:40:49.669Z,35.00
2022-11-08T06:43:19.654Z,35.00
2022-11-08T06:45:47.727Z,35.00
2022-11-08T06:48:14.554Z,35.00
2022-11-08T06:50:42.371Z,35.00
2022-11-08T06:53:12.062Z,35.00
2022-11-08T06:55:38.898Z,35.00
2022-11-08T06:58:05.733Z,34.90
2022-11-08T07:00:32.676Z,35.60
2022-11-08T07:03:01.165Z,35.00
2022-11-08T07:05:29.568Z,35.00
2022-11-08T07:08:00.669Z,35.10
2022-11-08T07:10:32.091Z,35.20
2022-11-08T07:13:07.280Z,35.10
2022-11-08T07:15:35.709Z,35.20
2022-11-08T07:18:04.764Z,35.20
2022-11-08T07:20:32.037Z,35.10
2022-11-08T07:22:59.141Z,35.10
2022-11-08T07:25:27.479Z,35.10
2022-11-08T07:27:58.963Z,35.10
2022-11-08T07:30:26.813Z,35.10
2022-11-08T07:32:54.759Z,35.10
2022-11-08T07:35:22.552Z,35.10
2022-11-08T07:37:49.403Z,35.10
2022-11-08T07:40:16.505Z,35.10
2022-11-08T07:43:10.131Z,35.20
2022-11-08T07:45:30.390Z,35.20
2022-11-08T07:48:05.546Z,35.30
2022-11-08T07:50:36.459Z,35.40
2022-11-08T07:53:03.498Z,35.50
2022-11-08T07:55:30.303Z,35.70
2022-11-08T07:58:03.100Z,35.80
2022-11-08T08:00:31.082Z,35.80
2022-11-08T08:03:02.219Z,35.80
2022-11-08T08:05:32.560Z,35.80
2022-11-08T08:08:00.095Z,35.80
2022-11-08T08:10:28.352Z,35.90
2022-11-08T08:12:56.460Z,35.90
2022-11-08T08:15:23.867Z,35.90
2022-11-08T08:17:50.790Z,35.90
2022-11-08T08:20:17.884Z,36.00
2022-11-08T08:22:45.241Z,36.00
2022-11-08T08:25:12.627Z,36.00
2022-11-08T08:27:39.946Z,36.00
2022-11-08T08:30:08.308Z,36.00
2022-11-08T08:32:35.054Z,36.10
2022-11-08T08:35:01.828Z,36.30
2022-11-08T08:37:29.056Z,36.40
2022-11-08T08:39:55.871Z,36.40
2022-11-08T08:42:22.754Z,36.50
2022-11-08T08:44:49.510Z,36.60
2022-11-08T08:47:16.303Z,36.60
2022-11-08T08:49:43.208Z,36.60
2022-11-08T08:52:10.746Z,36.60
2022-11-08T08:54:50.836Z,36.70
2022-11-08T08:57:17.599Z,36.70
2022-11-08T09:02:31.921Z,36.80
2022-11-08T09:04:59.116Z,36.80
2022-11-08T09:07:25.891Z,37.70
2022-11-08T09:09:52.699Z,37.00
2022-11-08T09:12:19.722Z,37.20
2022-11-08T09:14:46.470Z,37.30
2022-11-08T09:17:13.235Z,37.50
2022-11-08T09:19:40.075Z,37.80
2022-11-08T09:22:07.017Z,38.00
2022-11-08T09:24:34.515Z,38.10
2022-11-08T09:27:03.717Z,38.30
2022-11-08T09:29:31.244Z,38.40
2022-11-08T09:31:58.026Z,38.50
2022-11-08T09:34:24.950Z,38.60
2022-11-08T09:36:52.269Z,38.70
2022-11-08T09:39:19.171Z,38.80
2022-11-08T09:41:55.504Z,39.00
2022-11-08T09:44:57.522Z,39.10
2022-11-08T09:47:28.735Z,39.30
2022-11-08T09:49:58.556Z,39.60
2022-11-08T09:52:28.531Z,39.80
2022-11-08T09:55:24.347Z,40.00
2022-11-08T09:57:54.105Z,40.20
2022-11-08T10:00:21.372Z,40.40
2022-11-08T10:02:48.413Z,40.50
2022-11-08T10:05:19.051Z,40.50
2022-11-08T10:07:56.035Z,40.50
2022-11-08T10:10:28.635Z,40.60
2022-11-08T10:13:10.667Z,40.70
2022-11-08T10:15:49.670Z,40.60
2022-11-08T10:18:33.153Z,40.60
2022-11-08T10:21:54.757Z,40.50
2022-11-08T10:24:57.989Z,40.60
2022-11-08T10:27:42.788Z,40.50
2022-11-08T10:30:23.807Z,40.40
2022-11-08T10:32:57.909Z,40.40
2022-11-08T10:35:38.103Z,40.40
2022-11-08T10:38:17.662Z,40.20
2022-11-08T10:41:00.919Z,40.10
2022-11-08T10:44:13.898Z,39.90
2022-11-08T10:46:56.288Z,39.80
2022-11-08T10:49:27.620Z,39.60
2022-11-08T10:51:59.747Z,39.60
2022-11-08T10:54:55.821Z,39.50
2022-11-08T10:57:34.444Z,39.50
2022-11-08T11:00:19.851Z,39.30
2022-11-08T11:03:25.253Z,38.90
2022-11-08T11:06:02.156Z,39.50
2022-11-08T11:08:31.137Z,38.50
2022-11-08T11:11:18.584Z,38.40
2022-11-08T11:13:47.784Z,38.30
2022-11-08T11:16:14.851Z,38.20
2022-11-08T11:18:50.933Z,38.10
2022-11-08T11:21:20.491Z,38.10
2022-11-08T11:23:52.755Z,38.00
2022-11-08T11:26:39.117Z,38.00
2022-11-08T11:29:52.215Z,38.10
2022-11-08T11:32:34.204Z,38.00
2022-11-08T11:35:07.416Z,38.10
2022-11-08T11:37:48.532Z,38.20
2022-11-08T11:40:25.098Z,38.20
2022-11-08T11:43:16.511Z,38.40
2022-11-08T11:45:46.653Z,38.60
2022-11-08T11:48:21.249Z,38.60
2022-11-08T11:50:49.948Z,38.60
2022-11-08T11:53:21.626Z,38.70
2022-11-08T11:56:01.939Z,38.80
2022-11-08T11:59:00.699Z,38.90
2022-11-08T12:01:38.977Z,39.00
2022-11-08T12:04:29.299Z,39.00
2022-11-08T12:07:11.822Z,39.80
2022-11-08T12:10:02.340Z,39.10
2022-11-08T12:12:52.406Z,39.20
2022-11-08T12:15:27.912Z,39.20
2022-11-08T12:18:02.793Z,39.40
2022-11-08T12:20:43.459Z,39.40
2022-11-08T12:23:48.037Z,39.40
2022-11-08T12:26:14.995Z,39.40
2022-11-08T12:29:24.255Z,39.40
2022-11-08T12:32:09.744Z,39.50
2022-11-08T12:34:52.571Z,39.70
2022-11-08T12:37:36.642Z,39.60
2022-11-08T12:40:18.667Z,39.60
2022-11-08T12:42:51.126Z,39.60
2022-11-08T12:45:40.328Z,39.60
2022-11-08T12:48:31.144Z,39.60
2022-11-08T12:51:12.811Z,39.50
2022-11-08T12:54:12.285Z,39.50
2022-11-08T12:56:48.360Z,39.40
2022-11-08T12:59:59.782Z,39.40
2022-11-08T13:02:31.852Z,39.20
2022-11-08T13:05:13.772Z,39.10
2022-11-08T13:08:01.797Z,39.10
2022-11-08T13:10:39.085Z,38.90
2022-11-08T13:13:26.633Z,38.80
2022-11-08T13:16:08.871Z,38.80
2022-11-08T13:18:45.045Z,38.70
2022-11-08T13:21:42.041Z,38.70
2022-11-08T13:24:42.255Z,38.80
2022-11-08T13:27:45.252Z,38.90
2022-11-08T13:30:11.997Z,38.90
2022-11-08T13:33:06.397Z,39.00
2022-11-08T13:35:52.493Z,39.10
2022-11-08T13:38:48.170Z,39.20
2022-11-08T13:41:24.587Z,39.40
2022-11-08T13:43:56.473Z,39.50
2022-11-08T13:46:27.347Z,39.60
2022-11-08T13:49:03.628Z,39.70
2022-11-08T13:51:38.827Z,39.80
2022-11-08T13:54:23.995Z,40.00
2022-11-08T13:56:56.229Z,40.10
2022-11-08T13:59:34.952Z,40.10
2022-11-08T14:02:24.005Z,40.30
2022-11-08T14:04:52.015Z,40.30
2022-11-08T14:07:36.815Z,40.70
2022-11-08T14:10:27.618Z,40.50
2022-11-08T14:13:07.206Z,40.60
2022-11-08T14:15:44.123Z,40.70
2022-11-08T14:18:22.710Z,40.70
2022-11-08T14:20:59.126Z,40.80
2022-11-08T14:23:27.873Z,41.50
2022-11-08T14:26:10.754Z,40.80
2022-11-08T14:28:45.830Z,40.80
2022-11-08T14:31:31.313Z,40.90
2022-11-08T14:33:59.580Z,41.00
2022-11-08T14:36:31.705Z,41.00
2022-11-08T14:39:15.824Z,41.00
2022-11-08T14:41:47.941Z,41.00
2022-11-08T14:44:18.771Z,41.20
2022-11-08T14:46:46.512Z,41.30
2022-11-08T14:49:33.411Z,41.40
2022-11-08T14:52:07.691Z,41.50
2022-11-08T14:54:40.676Z,41.60
2022-11-08T14:57:40.090Z,41.60
2022-11-08T15:00:12.963Z,41.70
2022-11-08T15:02:41.884Z,41.80
2022-11-08T15:05:42.607Z,41.80
2022-11-08T15:08:26.038Z,41.90
2022-11-08T15:11:02.822Z,41.90
2022-11-08T15:13:39.645Z,41.80
2022-11-08T15:16:08.686Z,41.90
2022-11-08T15:18:44.149Z,41.90
2022-11-08T15:21:30.362Z,41.90
2022-11-08T15:24:15.428Z,41.90
2022-11-08T15:27:01.610Z,41.80
2022-11-08T15:29:28.525Z,41.80
2022-11-08T15:32:01.424Z,41.80
2022-11-08T15:34:39.540Z,41.90
2022-11-08T15:37:29.535Z,41.90
2022-11-08T15:40:21.028Z,41.90
2022-11-08T15:42:50.451Z,41.90
2022-11-08T15:45:17.188Z,41.90
2022-11-08T15:47:43.968Z,41.90
2022-11-08T15:50:21.570Z,41.90
2022-11-08T15:52:51.539Z,41.90
2022-11-08T15:55:27.775Z,41.90
2022-11-08T15:57:54.655Z,41.90
2022-11-08T16:00:33.280Z,41.90
2022-11-08T16:03:00.085Z,41.90
2022-11-08T16:05:28.748Z,41.90
2022-11-08T16:07:55.850Z,41.80
2022-11-08T16:10:34.672Z,41.80
2022-11-08T16:13:03.481Z,41.70
2022-11-08T16:15:33.293Z,41.60
2022-11-08T16:18:01.504Z,41.60
2022-11-08T16:20:31.677Z,41.60
2022-11-08T16:23:06.422Z,41.50
2022-11-08T16:25:51.842Z,41.50
2022-11-08T16:28:35.117Z,41.50
2022-11-08T16:31:03.127Z,41.50
2022-11-08T16:33:31.625Z,41.60
2022-11-08T16:36:01.212Z,41.50
2022-11-08T16:38:32.589Z,41.40
2022-11-08T16:40:59.380Z,41.30
2022-11-08T16:43:26.123Z,41.20
2022-11-08T16:46:08.417Z,41.20
2022-11-08T16:48:37.504Z,41.10
2022-11-08T16:51:06.828Z,41.00
2022-11-08T16:53:35.436Z,40.90
2022-11-08T16:56:02.271Z,40.70
2022-11-08T16:58:29.408Z,40.60
2022-11-08T17:00:57.059Z,40.50
2022-11-08T17:03:25.781Z,40.40
2022-11-08T17:05:54.016Z,40.40
2022-11-08T17:08:21.909Z,40.40
2022-11-08T17:10:49.504Z,40.20
2022-11-08T17:13:17.791Z,40.20
2022-11-08T17:15:45.907Z,40.10
2022-11-08T17:18:15.392Z,40.00
2022-11-08T17:20:42.431Z,39.90
2022-11-08T17:23:10.279Z,39.80
2022-11-08T17:25:39.843Z,40.10
2022-11-08T17:28:06.858Z,39.70
2022-11-08T17:30:33.914Z,39.70
2022-11-08T17:33:00.895Z,39.70
2022-11-08T17:35:28.288Z,39.70
2022-11-08T17:37:56.119Z,39.70
2022-11-08T17:40:22.899Z,39.60
2022-11-08T17:42:50.041Z,39.50
2022-11-08T17:45:16.862Z,39.60
2022-11-08T17:47:43.676Z,39.50
2022-11-08T17:50:10.834Z,39.50
2022-11-08T17:52:37.767Z,39.60
2022-11-08T17:55:05.263Z,39.50
2022-11-08T17:57:32.515Z,39.70
2022-11-08T17:59:59.424Z,39.70
2022-11-08T18:02:27.376Z,39.70
2022-11-08T18:04:57.061Z,39.80
2022-11-08T18:07:24.706Z,39.90
2022-11-08T18:09:52.096Z,39.80
2022-11-08T18:12:19.295Z,39.70
2022-11-08T18:14:46.137Z,39.70
2022-11-08T18:17:12.921Z,39.50
2022-11-08T18:19:39.805Z,39.50
2022-11-08T18:22:06.818Z,39.30
2022-11-08T18:24:33.687Z,39.10
2022-11-08T18:27:00.574Z,39.00
2022-11-08T18:29:27.507Z,38.80
2022-11-08T18:31:54.410Z,38.70
2022-11-08T18:34:21.263Z,38.60
2022-11-08T18:36:49.165Z,38.60
2022-11-08T18:39:19.385Z,38.50
2022-11-08T18:41:46.486Z,38.50
2022-11-08T18:44:13.300Z,38.60
2022-11-08T18:46:43.161Z,38.70
2022-11-08T18:49:11.277Z,38.70
2022-11-08T18:51:38.094Z,38.90
2022-11-08T18:54:04.997Z,39.00
2022-11-08T18:56:31.787Z,39.10
2022-11-08T18:58:58.647Z,39.10
2022-11-08T19:01:25.442Z,39.10
2022-11-08T19:03:52.304Z,39.00
2022-11-08T19:06:19.571Z,39.00
2022-11-08T19:08:46.608Z,38.90
2022-11-08T19:11:14.436Z,38.70
2022-11-08T19:13:41.758Z,38.60
2022-11-08T19:16:13.186Z,38.50
2022-11-08T19:18:40.677Z,38.40
2022-11-08T19:21:29.213Z,38.30
2022-11-08T19:23:59.430Z,38.10
2022-11-08T19:26:28.633Z,38.00
2022-11-08T19:28:56.553Z,37.80
2022-11-08T19:31:24.617Z,37.70
2022-11-08T19:33:53.261Z,37.70
2022-11-08T19:36:22.897Z,37.60
2022-11-08T19:38:50.092Z,37.50
2022-11-08T19:41:19.693Z,37.50
2022-11-08T19:43:47.903Z,37.50
2022-11-08T19:46:26.745Z,37.60
2022-11-08T19:48:53.546Z,37.70
2022-11-08T19:51:22.805Z,37.70
2022-11-08T19:53:50.061Z,37.80
2022-11-08T19:56:20.060Z,37.90
2022-11-08T19:58:47.676Z,37.90
2022-11-08T20:01:24.433Z,37.90
2022-11-08T20:03:51.315Z,37.90
2022-11-08T20:06:20.513Z,38.00
2022-11-08T20:08:52.035Z,38.00
2022-11-08T20:11:21.356Z,38.00
2022-11-08T20:13:48.629Z,38.10
2022-11-08T20:16:21.606Z,38.20
2022-11-08T20:18:48.713Z,38.20
2022-11-08T20:21:17.131Z,38.90
2022-11-08T20:23:44.907Z,38.30
2022-11-08T20:26:23.658Z,38.20
2022-11-08T20:28:56.390Z,38.20
2022-11-08T20:31:25.045Z,38.20
2022-11-08T20:33:53.545Z,38.10
2022-11-08T20:36:22.681Z,38.20
2022-11-08T20:38:50.079Z,38.20
2022-11-08T20:41:17.913Z,38.10
2022-11-08T20:43:46.563Z,38.20
2022-11-08T20:46:15.780Z,38.90
2022-11-08T20:48:44.217Z,38.10
2022-11-08T20:51:13.509Z,38.20
2022-11-08T20:53:41.589Z,38.10
2022-11-08T20:56:12.335Z,38.10
2022-11-08T20:58:39.286Z,38.10
2022-11-08T21:01:08.026Z,38.00
2022-11-08T21:03:36.341Z,38.10
2022-11-08T21:06:06.949Z,38.00
2022-11-08T21:08:59.465Z,38.00
2022-11-08T21:11:22.127Z,38.00
2022-11-08T21:13:49.465Z,38.00
2022-11-08T21:16:29.789Z,38.00
2022-11-08T21:18:58.928Z,38.00
2022-11-08T21:21:26.269Z,38.00
2022-11-08T21:23:54.378Z,38.10
2022-11-08T21:26:22.367Z,38.10
2022-11-08T21:28:49.183Z,38.10
2022-11-08T21:31:16.140Z,38.10
2022-11-08T21:33:43.248Z,38.10
2022-11-08T21:36:12.524Z,38.10
2022-11-08T21:38:40.353Z,38.10
2022-11-08T21:41:09.127Z,38.10
2022-11-08T21:43:43.010Z,38.10
2022-11-08T21:46:16.866Z,38.10
2022-11-08T21:48:45.899Z,38.10
2022-11-08T21:51:13.293Z,38.10
2022-11-08T21:53:49.416Z,38.20
2022-11-08T21:56:21.361Z,38.20
2022-11-08T21:58:48.135Z,38.20
2022-11-08T22:01:15.199Z,38.20
2022-11-08T22:03:42.041Z,38.20
2022-11-08T22:06:08.904Z,38.20
2022-11-08T22:08:35.958Z,39.00
2022-11-08T22:11:02.726Z,38.20
2022-11-08T22:13:29.554Z,38.20
2022-11-08T22:15:56.381Z,38.10
2022-11-08T22:18:37.030Z,38.00
2022-11-08T22:21:28.817Z,37.90
2022-11-08T22:23:55.612Z,37.80
2022-11-08T22:26:22.363Z,37.80
2022-11-08T22:28:49.116Z,37.70
2022-11-08T22:31:15.892Z,37.70
2022-11-08T22:33:42.653Z,37.60
2022-11-08T22:36:09.633Z,37.60
2022-11-08T22:38:36.418Z,37.50
2022-11-08T22:41:03.621Z,37.50
2022-11-08T22:43:30.379Z,37.50
2022-11-08T22:45:57.238Z,37.50
2022-11-08T22:48:24.044Z,37.40
2022-11-08T22:50:50.780Z,37.40
2022-11-08T22:53:18.034Z,37.30
2022-11-08T22:55:45.239Z,37.30
2022-11-08T22:58:12.716Z,37.20
2022-11-08T23:00:39.605Z,37.20
2022-11-08T23:03:06.522Z,37.20
2022-11-08T23:05:33.284Z,37.20
2022-11-08T23:08:00.210Z,37.20
2022-11-08T23:10:27.109Z,37.20
2022-11-08T23:13:12.890Z,37.20
2022-11-08T23:15:58.400Z,37.20
2022-11-08T23:18:27.156Z,37.10
2022-11-08T23:21:13.359Z,37.00
2022-11-08T23:23:58.630Z,36.90
2022-11-08T23:26:43.921Z,36.90
2022-11-08T23:29:29.485Z,36.90
2022-11-08T23:31:56.949Z,36.70
2022-11-08T23:34:23.709Z,36.70
2022-11-08T23:36:50.443Z,36.70
2022-11-08T23:39:17.252Z,36.70
2022-11-08T23:42:02.607Z,36.70
2022-11-08T23:44:29.600Z,36.80
2022-11-08T23:47:00.662Z,36.70
2022-11-08T23:49:28.307Z,36.70
2022-11-08T23:51:55.402Z,36.60
2022-11-08T23:54:22.316Z,36.60
2022-11-08T23:56:49.320Z,36.70
2022-11-08T23:59:16.696Z,36.70
